Time;durP1;ratioP1;P1;durP2;ratioP2;P2;SDS_P1;SDS_P2;PMS_P1;PMS_P2;Temp;Humidity;BMP_temperature;BMP_pressure;BME280_temperature;BME280_humidity;BME280_pressure;Samples;Min_cycle;Max_cycle;Signal;HPM_P1;HPM_P2
2021/12/06 00:01:20;;;;;;;4.47;2.75;;;22.90;37.20;;;;;;4969136;28;21452;-65
2021/12/06 00:03:53;;;;;;;3.80;2.80;;;22.80;37.10;;;;;;4936492;28;20419;-65
2021/12/06 00:06:21;;;;;;;3.40;2.42;;;22.80;36.90;;;;;;4972707;28;20406;-66
2021/12/06 00:08:47;;;;;;;3.60;2.50;;;22.90;36.90;;;;;;4967858;28;20389;-65
2021/12/06 00:11:14;;;;;;;3.67;2.60;;;22.80;36.60;;;;;;4965927;28;21162;-65
2021/12/06 00:13:43;;;;;;;4.70;2.85;;;22.80;36.70;;;;;;4973540;28;20982;-65
2021/12/06 00:16:15;;;;;;;5.40;2.80;;;22.80;36.70;;;;;;4965479;28;20973;-65
2021/12/06 00:18:41;;;;;;;4.20;2.58;;;22.80;36.70;;;;;;4968916;28;20499;-65
2021/12/06 00:21:08;;;;;;;4.38;2.60;;;22.80;36.60;;;;;;4965578;28;20451;-65
2021/12/06 00:23:34;;;;;;;4.70;2.60;;;22.80;36.60;;;;;;4970576;28;20408;-65
2021/12/06 00:26:04;;;;;;;4.15;2.58;;;22.70;36.50;;;;;;4966250;28;20424;-65
2021/12/06 00:28:30;;;;;;;3.50;2.40;;;22.70;36.50;;;;;;4966381;28;20567;-65
2021/12/06 00:30:56;;;;;;;3.50;2.63;;;22.70;36.40;;;;;;4971301;28;20524;-66
2021/12/06 00:33:24;;;;;;;3.97;2.30;;;22.70;36.40;;;;;;4967803;28;20400;-66
2021/12/06 00:35:49;;;;;;;3.30;2.60;;;22.70;36.30;;;;;;4967454;28;20429;-64
2021/12/06 00:38:15;;;;;;;3.83;2.50;;;22.70;36.50;;;;;;4972113;28;20412;-65
2021/12/06 00:40:46;;;;;;;3.35;2.30;;;22.70;36.30;;;;;;4965006;28;20527;-65
2021/12/06 00:43:13;;;;;;;3.28;2.40;;;22.70;36.40;;;;;;4963056;28;20806;-66
2021/12/06 00:45:39;;;;;;;3.50;2.42;;;22.60;36.30;;;;;;4964433;28;20771;-66
2021/12/06 00:48:05;;;;;;;3.70;2.30;;;22.60;36.40;;;;;;4970985;28;20388;-67
2021/12/06 00:50:33;;;;;;;3.20;2.30;;;22.60;36.40;;;;;;4964895;28;21418;-65
2021/12/06 00:52:59;;;;;;;2.95;2.22;;;22.60;36.40;;;;;;4969158;28;20399;-65
2021/12/06 00:55:26;;;;;;;3.40;2.33;;;22.60;36.30;;;;;;4970665;28;20470;-66
2021/12/06 00:57:53;;;;;;;2.90;2.03;;;22.60;36.50;;;;;;4970118;28;20394;-65
2021/12/06 01:00:42;;;;;;;3.10;2.07;;;22.60;36.30;;;;;;4970190;28;20875;-65
2021/12/06 01:03:12;;;;;;;2.95;2.15;;;22.60;36.00;;;;;;4969388;28;20391;-66
2021/12/06 01:05:38;;;;;;;3.22;2.38;;;22.50;36.00;;;;;;4968725;28;20428;-67
2021/12/06 01:08:04;;;;;;;3.20;2.50;;;22.50;36.10;;;;;;4968345;28;20963;-67
2021/12/06 01:10:32;;;;;;;3.45;2.22;;;22.50;36.00;;;;;;4972653;28;20894;-64
2021/12/06 01:12:58;;;;;;;3.25;2.20;;;22.50;36.00;;;;;;4969440;28;20406;-67
2021/12/06 01:15:25;;;;;;;2.97;2.03;;;22.50;36.10;;;;;;4966478;28;20915;-66
2021/12/06 01:17:51;;;;;;;2.80;2.10;;;22.50;36.00;;;;;;4966547;28;20485;-69
2021/12/06 01:20:22;;;;;;;2.55;2.08;;;22.50;36.00;;;;;;4966528;28;20517;-65
2021/12/06 01:23:03;;;;;;;3.35;1.80;;;22.50;36.10;;;;;;4971839;28;20416;-66
2021/12/06 01:25:42;;;;;;;3.38;1.98;;;22.40;36.00;;;;;;4968565;28;20423;-66
2021/12/06 01:41:26;;;;;;;2.30;1.80;;;22.40;35.90;;;;;;4969586;28;20866;-69
2021/12/06 01:44:07;;;;;;;2.75;2.05;;;22.40;36.00;;;;;;4967284;28;20853;-67
2021/12/06 01:46:35;;;;;;;2.60;1.98;;;22.40;36.00;;;;;;4969102;28;21008;-65
2021/12/06 01:49:01;;;;;;;2.60;2.00;;;22.30;36.10;;;;;;4968633;28;20446;-64
2021/12/06 01:51:27;;;;;;;2.58;2.00;;;22.30;36.10;;;;;;4965329;28;20853;-64
2021/12/06 01:53:53;;;;;;;2.55;1.60;;;22.30;36.40;;;;;;4964774;28;20898;-65
2021/12/06 01:56:19;;;;;;;2.70;1.85;;;22.30;36.30;;;;;;4968606;28;20422;-66
2021/12/06 01:58:45;;;;;;;2.67;1.73;;;22.30;36.20;;;;;;4966553;28;20471;-66
2021/12/06 02:01:11;;;;;;;2.95;1.80;;;22.30;36.20;;;;;;4969531;28;20395;-66
2021/12/06 02:03:37;;;;;;;2.20;1.73;;;22.30;36.30;;;;;;4963792;28;20431;-65
2021/12/06 02:06:03;;;;;;;2.15;1.73;;;22.30;36.60;;;;;;4963307;28;20784;-65
2021/12/06 02:08:29;;;;;;;2.67;1.70;;;22.30;36.50;;;;;;4967447;28;20410;-65
2021/12/06 02:11:00;;;;;;;2.37;1.80;;;22.30;36.50;;;;;;4966349;28;20406;-65
2021/12/06 02:13:30;;;;;;;2.40;1.77;;;22.30;36.60;;;;;;4964217;28;20435;-67
2021/12/06 02:15:56;;;;;;;2.83;1.90;;;22.30;36.90;;;;;;4964271;28;20412;-67
2021/12/06 02:21:31;;;;;;;2.17;1.70;;;22.30;36.70;;;;;;4976160;28;20483;-66
2021/12/06 02:23:59;;;;;;;3.17;2.00;;;22.30;36.40;;;;;;4965236;28;20543;-65
2021/12/06 02:26:25;;;;;;;2.67;1.83;;;22.30;36.70;;;;;;4972537;28;20437;-66
2021/12/06 02:28:52;;;;;;;2.20;1.80;;;22.30;36.50;;;;;;4967921;28;20432;-71
2021/12/06 02:31:20;;;;;;;2.40;1.80;;;22.30;36.70;;;;;;4967760;28;20432;-67
2021/12/06 02:33:48;;;;;;;2.53;1.90;;;22.30;36.60;;;;;;4974523;28;20412;-69
2021/12/06 02:36:19;;;;;;;2.72;1.80;;;22.20;36.70;;;;;;4966155;28;20428;-69
2021/12/06 02:38:46;;;;;;;2.58;1.80;;;22.20;36.50;;;;;;4971828;28;20383;-70
2021/12/06 02:41:12;;;;;;;2.20;1.73;;;22.20;36.80;;;;;;4969477;28;20403;-70
2021/12/06 02:43:40;;;;;;;2.50;1.80;;;22.10;36.60;;;;;;4967240;28;20415;-67
2021/12/06 02:46:06;;;;;;;2.25;1.80;;;22.20;36.60;;;;;;4970170;28;20445;-69
2021/12/06 02:48:32;;;;;;;2.30;1.83;;;22.10;37.00;;;;;;4964502;28;20436;-65
2021/12/06 02:51:04;;;;;;;2.10;1.60;;;22.10;36.90;;;;;;4973897;28;20410;-65
2021/12/06 02:53:32;;;;;;;2.30;1.73;;;22.10;36.90;;;;;;4963335;28;20507;-66
2021/12/06 02:56:04;;;;;;;2.13;1.40;;;22.10;37.00;;;;;;4964179;28;20426;-65
2021/12/06 03:01:06;;;;;;;4.18;1.60;;;22.10;37.10;;;;;;4974540;28;20395;-65
2021/12/06 03:03:32;;;;;;;2.35;1.63;;;22.00;36.50;;;;;;4971191;28;20450;-65
2021/12/06 03:05:58;;;;;;;2.10;1.55;;;22.00;36.80;;;;;;4968680;28;20412;-67
2021/12/06 03:08:39;;;;;;;1.95;1.50;;;22.00;36.40;;;;;;4968252;28;20434;-66
2021/12/06 03:11:07;;;;;;;1.80;1.40;;;22.10;36.80;;;;;;4976449;28;20454;-68
2021/12/06 03:13:33;;;;;;;2.17;1.50;;;22.00;36.80;;;;;;4974259;28;20406;-67
2021/12/06 03:15:59;;;;;;;3.80;1.52;;;22.00;36.80;;;;;;4974891;28;20413;-65
2021/12/06 03:18:25;;;;;;;2.22;1.50;;;22.00;37.00;;;;;;4976714;28;20516;-65
2021/12/06 03:20:51;;;;;;;2.28;1.45;;;22.00;37.00;;;;;;4970311;28;20736;-66
2021/12/06 03:23:16;;;;;;;2.72;1.65;;;22.00;37.10;;;;;;4966084;28;20419;-67
2021/12/06 03:25:44;;;;;;;1.95;1.30;;;22.00;37.60;;;;;;4970877;28;20435;-67
2021/12/06 03:28:09;;;;;;;2.00;1.50;;;22.00;36.90;;;;;;4973525;28;20834;-66
2021/12/06 03:30:35;;;;;;;2.17;1.40;;;21.90;36.70;;;;;;4973920;28;20487;-65
2021/12/06 03:33:01;;;;;;;2.67;1.53;;;22.00;37.30;;;;;;4976821;28;20456;-65
2021/12/06 03:35:27;;;;;;;1.95;1.50;;;21.90;37.00;;;;;;4975879;28;20410;-67
2021/12/06 03:37:53;;;;;;;1.60;1.40;;;21.90;37.20;;;;;;4969699;28;21620;-64
2021/12/06 03:40:19;;;;;;;1.80;1.40;;;21.90;37.00;;;;;;4969484;28;20396;-65
2021/12/06 03:42:44;;;;;;;2.30;1.60;;;21.90;36.90;;;;;;4966225;28;20859;-66
2021/12/06 03:45:11;;;;;;;1.60;1.27;;;21.90;37.10;;;;;;4971234;28;20777;-65
2021/12/06 03:47:37;;;;;;;2.10;1.48;;;21.90;37.00;;;;;;4967149;28;20956;-66
2021/12/06 03:50:06;;;;;;;2.10;1.60;;;21.90;36.80;;;;;;4978222;28;20429;-68
2021/12/06 03:52:32;;;;;;;2.38;1.70;;;21.90;37.00;;;;;;4972364;28;20430;-70
2021/12/06 03:54:58;;;;;;;2.07;1.50;;;21.90;37.10;;;;;;4976135;28;20430;-67
2021/12/06 03:57:24;;;;;;;2.08;1.60;;;21.90;36.70;;;;;;4972579;28;20428;-69
2021/12/06 03:59:51;;;;;;;2.13;1.50;;;21.90;37.10;;;;;;4970406;28;20977;-69
2021/12/06 04:02:18;;;;;;;2.03;1.50;;;21.90;37.00;;;;;;4975447;28;20411;-65
2021/12/06 04:04:45;;;;;;;2.00;1.37;;;21.90;37.10;;;;;;4975115;28;20400;-65
2021/12/06 04:07:11;;;;;;;1.90;1.30;;;21.90;37.00;;;;;;4972022;28;20403;-65
2021/12/06 04:09:36;;;;;;;2.03;1.60;;;21.90;36.90;;;;;;4968413;28;20401;-65
2021/12/06 04:12:05;;;;;;;1.85;1.40;;;21.90;36.80;;;;;;4965656;28;20491;-65
2021/12/06 04:14:31;;;;;;;2.00;1.40;;;21.80;37.00;;;;;;4971621;28;20395;-65
2021/12/06 04:16:56;;;;;;;2.10;1.50;;;21.80;36.90;;;;;;4965872;28;20489;-66
2021/12/06 04:19:22;;;;;;;1.73;1.30;;;21.90;36.70;;;;;;4969172;28;20423;-65
2021/12/06 04:21:48;;;;;;;1.92;1.58;;;21.90;36.70;;;;;;4973341;28;20404;-66
2021/12/06 04:24:14;;;;;;;1.90;1.50;;;21.90;36.90;;;;;;4973382;28;20417;-64
2021/12/06 04:26:40;;;;;;;1.73;1.50;;;21.90;36.70;;;;;;4969728;28;20402;-69
2021/12/06 04:29:06;;;;;;;1.70;1.33;;;21.90;36.70;;;;;;4973370;28;20448;-68
2021/12/06 04:31:39;;;;;;;2.00;1.40;;;21.80;36.70;;;;;;4966346;28;20443;-67
2021/12/06 04:34:05;;;;;;;1.70;1.40;;;21.80;36.90;;;;;;4964729;28;20458;-69
2021/12/06 04:36:31;;;;;;;1.90;1.20;;;21.80;36.70;;;;;;4967950;28;20486;-66
2021/12/06 04:38:57;;;;;;;2.17;1.35;;;21.80;36.60;;;;;;4973106;28;20877;-69
2021/12/06 04:41:23;;;;;;;2.00;1.40;;;21.80;36.60;;;;;;4971512;28;20408;-66
2021/12/06 04:43:49;;;;;;;1.70;1.40;;;21.80;36.50;;;;;;4967886;28;20400;-66
2021/12/06 04:46:15;;;;;;;2.03;1.38;;;21.80;36.60;;;;;;4976293;28;20411;-65
2021/12/06 04:48:41;;;;;;;2.13;1.50;;;21.80;36.60;;;;;;4967948;28;20400;-65
2021/12/06 04:51:07;;;;;;;2.08;1.65;;;21.80;36.40;;;;;;4970010;28;20909;-68
2021/12/06 04:53:36;;;;;;;2.08;1.50;;;21.80;36.30;;;;;;4968388;28;20396;-66
2021/12/06 04:56:35;;;;;;;2.20;1.80;;;21.80;36.40;;;;;;4964862;28;20787;-65
2021/12/06 04:59:28;;;;;;;2.33;1.70;;;21.80;36.20;;;;;;4968130;28;20847;-65
2021/12/06 05:01:57;;;;;;;2.45;1.80;;;21.80;36.40;;;;;;4970843;28;20834;-67
2021/12/06 05:04:28;;;;;;;2.38;1.65;;;21.80;35.80;;;;;;4973835;28;20392;-65
2021/12/06 05:07:00;;;;;;;3.17;1.92;;;21.80;35.90;;;;;;4968782;28;20383;-68
2021/12/06 05:09:31;;;;;;;2.92;1.83;;;21.70;35.70;;;;;;4972874;28;20491;-71
2021/12/06 05:11:58;;;;;;;4.70;2.13;;;21.80;36.00;;;;;;4967817;28;20392;-69
2021/12/06 05:14:25;;;;;;;2.40;1.85;;;21.80;35.70;;;;;;4972573;28;20388;-67
2021/12/06 05:16:51;;;;;;;3.67;2.45;;;21.80;35.80;;;;;;4971861;28;20418;-71
2021/12/06 05:19:17;;;;;;;3.20;2.28;;;21.80;36.50;;;;;;4971606;28;20411;-69
2021/12/06 05:21:43;;;;;;;5.47;2.37;;;21.80;36.60;;;;;;4974083;28;20499;-69
2021/12/06 05:24:09;;;;;;;3.92;2.70;;;21.90;38.00;;;;;;4967795;28;20491;-71
2021/12/06 05:26:36;;;;;;;4.50;2.50;;;21.90;38.10;;;;;;4973492;28;20475;-71
2021/12/06 05:29:04;;;;;;;5.72;3.28;;;21.90;37.60;;;;;;4970142;28;20438;-65
2021/12/06 05:31:33;;;;;;;5.30;3.40;;;22.00;38.30;;;;;;4968034;28;20489;-71
2021/12/06 05:34:02;;;;;;;7.93;4.97;;;22.00;38.20;;;;;;4966922;28;20922;-65
2021/12/06 05:36:28;;;;;;;7.70;4.93;;;22.10;38.60;;;;;;4967559;28;20442;-67
2021/12/06 05:38:55;;;;;;;10.53;5.40;;;22.10;38.30;;;;;;4971237;28;20395;-70
2021/12/06 05:41:22;;;;;;;9.20;5.72;;;22.20;38.50;;;;;;4973773;28;20482;-65
2021/12/06 05:43:47;;;;;;;11.03;6.60;;;22.20;38.30;;;;;;4972951;28;20466;-65
2021/12/06 05:46:14;;;;;;;10.40;6.25;;;22.20;38.30;;;;;;4970720;28;20404;-66
2021/12/06 05:48:39;;;;;;;9.75;5.78;;;22.20;38.50;;;;;;4973847;28;20403;-70
2021/12/06 05:51:06;;;;;;;8.95;5.95;;;22.20;38.70;;;;;;4969537;28;20786;-68
2021/12/06 05:53:31;;;;;;;9.70;5.30;;;22.20;38.20;;;;;;4969721;28;20447;-69
2021/12/06 05:55:57;;;;;;;8.23;5.33;;;22.20;38.00;;;;;;4964859;28;20431;-66
2021/12/06 05:58:29;;;;;;;9.45;5.03;;;22.20;37.90;;;;;;4970779;28;20399;-68
2021/12/06 06:00:57;;;;;;;9.80;5.28;;;22.20;37.80;;;;;;4966710;28;20402;-68
2021/12/06 06:03:24;;;;;;;8.70;4.75;;;22.20;37.80;;;;;;4970193;28;20407;-67
2021/12/06 06:05:50;;;;;;;9.30;4.95;;;22.20;38.20;;;;;;4970412;28;20797;-68
2021/12/06 06:08:16;;;;;;;10.68;5.43;;;22.20;38.40;;;;;;4968075;28;20537;-70
2021/12/06 06:10:42;;;;;;;8.83;4.90;;;22.10;38.20;;;;;;4970679;28;20408;-70
2021/12/06 06:13:09;;;;;;;9.50;4.40;;;22.10;37.60;;;;;;4968218;28;20410;-66
2021/12/06 06:15:35;;;;;;;8.75;4.72;;;22.10;37.80;;;;;;4972583;28;21406;-66
2021/12/06 06:18:01;;;;;;;8.07;4.90;;;22.10;37.60;;;;;;4970130;28;20411;-66
2021/12/06 06:20:39;;;;;;;7.53;4.53;;;22.10;37.60;;;;;;4967687;28;20910;-66
2021/12/06 06:23:05;;;;;;;12.25;5.10;;;22.10;37.40;;;;;;4978312;28;20408;-66
2021/12/06 06:25:32;;;;;;;8.27;4.90;;;22.10;36.60;;;;;;4971165;28;20467;-65
2021/12/06 06:27:58;;;;;;;9.48;4.88;;;22.00;36.70;;;;;;4972207;28;20396;-66
2021/12/06 06:30:24;;;;;;;9.43;4.63;;;21.90;36.50;;;;;;4966608;28;20410;-66
2021/12/06 06:32:49;;;;;;;8.30;4.60;;;22.00;36.50;;;;;;4966639;28;20400;-66
2021/12/06 06:35:17;;;;;;;8.43;4.55;;;21.90;36.20;;;;;;4963266;28;20400;-66
2021/12/06 06:37:43;;;;;;;8.23;4.20;;;21.90;36.00;;;;;;4970681;28;20406;-66
2021/12/06 06:40:09;;;;;;;8.52;4.47;;;21.90;36.00;;;;;;4972313;28;20400;-66
2021/12/06 06:42:35;;;;;;;13.98;4.90;;;21.90;35.80;;;;;;4971108;28;20951;-65
2021/12/06 06:45:02;;;;;;;8.80;4.33;;;21.90;35.80;;;;;;4971823;28;20400;-66
2021/12/06 06:47:28;;;;;;;7.88;4.72;;;21.90;35.70;;;;;;4968576;28;20449;-65
2021/12/06 06:49:54;;;;;;;6.57;4.25;;;21.80;35.40;;;;;;4979017;28;20398;-66
2021/12/06 06:52:19;;;;;;;8.43;4.20;;;21.80;35.30;;;;;;4969996;28;20411;-66
2021/12/06 06:54:45;;;;;;;7.03;4.32;;;21.90;35.20;;;;;;4973962;28;20749;-66
2021/12/06 06:57:11;;;;;;;7.93;4.55;;;21.80;35.00;;;;;;4971323;28;20431;-67
2021/12/06 06:59:37;;;;;;;7.17;4.87;;;21.80;35.10;;;;;;4972384;28;20454;-68
2021/12/06 07:02:03;;;;;;;6.70;4.40;;;21.80;35.30;;;;;;4969041;28;20487;-67
2021/12/06 07:04:29;;;;;;;8.15;4.63;;;21.80;35.50;;;;;;4978919;28;21610;-66
2021/12/06 07:06:55;;;;;;;8.23;4.70;;;21.80;35.70;;;;;;4975700;28;20396;-66
2021/12/06 07:09:21;;;;;;;6.63;4.45;;;21.80;36.00;;;;;;4968379;28;20392;-65
2021/12/06 07:11:47;;;;;;;8.30;4.77;;;21.80;36.10;;;;;;4976387;28;20452;-68
2021/12/06 07:14:20;;;;;;;6.45;4.22;;;21.80;36.00;;;;;;4967303;28;21462;-66
2021/12/06 07:16:50;;;;;;;6.25;4.35;;;21.80;36.10;;;;;;4974540;28;20472;-67
2021/12/06 07:19:15;;;;;;;6.45;4.38;;;21.80;36.20;;;;;;4969767;28;20412;-68
2021/12/06 07:21:41;;;;;;;6.47;4.40;;;21.90;36.30;;;;;;4971847;28;20905;-69
2021/12/06 07:24:07;;;;;;;7.60;4.70;;;21.80;35.90;;;;;;4976826;28;20392;-66
2021/12/06 07:26:33;;;;;;;6.15;4.65;;;21.80;35.80;;;;;;4967852;28;20408;-66
2021/12/06 07:29:01;;;;;;;5.90;4.03;;;21.80;35.90;;;;;;4977055;28;20420;-65
2021/12/06 07:31:27;;;;;;;8.18;4.22;;;21.80;36.20;;;;;;4967671;28;20396;-66
2021/12/06 07:33:53;;;;;;;7.95;4.50;;;21.80;35.80;;;;;;4967931;28;20425;-67
2021/12/06 07:36:21;;;;;;;5.73;4.20;;;21.80;35.70;;;;;;4970755;28;20520;-66
2021/12/06 07:38:47;;;;;;;5.70;4.25;;;21.80;35.60;;;;;;4964327;28;20483;-66
2021/12/06 07:41:16;;;;;;;5.93;4.22;;;21.70;35.60;;;;;;4964228;28;20408;-67
2021/12/06 07:43:42;;;;;;;5.88;4.18;;;21.70;35.60;;;;;;4965780;28;20500;-67
2021/12/06 07:46:09;;;;;;;6.97;4.30;;;21.70;35.50;;;;;;4967365;28;20396;-66
2021/12/06 07:48:35;;;;;;;5.57;4.30;;;21.70;35.50;;;;;;4971064;28;20397;-66
2021/12/06 07:51:02;;;;;;;5.00;4.00;;;21.70;35.30;;;;;;4964644;28;20740;-66
2021/12/06 07:53:29;;;;;;;5.88;4.18;;;21.70;35.30;;;;;;4968375;28;20876;-66
2021/12/06 07:55:55;;;;;;;5.25;3.85;;;21.70;35.30;;;;;;4965364;28;20418;-66
2021/12/06 07:58:21;;;;;;;4.97;3.92;;;21.60;35.10;;;;;;4968174;28;20459;-66
2021/12/06 08:00:48;;;;;;;6.10;4.40;;;21.70;35.10;;;;;;4971468;28;20400;-66
2021/12/06 08:03:15;;;;;;;5.70;3.97;;;21.60;35.10;;;;;;4968523;28;20434;-66
2021/12/06 08:05:45;;;;;;;4.95;3.80;;;21.60;35.00;;;;;;4965026;28;20959;-65
2021/12/06 08:08:24;;;;;;;5.13;3.70;;;21.60;35.00;;;;;;4964828;28;20937;-66
2021/12/06 08:10:53;;;;;;;4.85;3.78;;;21.60;35.00;;;;;;4974843;28;20391;-66
2021/12/06 08:13:22;;;;;;;4.65;3.80;;;21.60;35.00;;;;;;4970222;28;20726;-66
2021/12/06 08:15:51;;;;;;;6.65;3.55;;;21.70;35.00;;;;;;4967382;28;20412;-67
2021/12/06 08:18:17;;;;;;;4.55;3.83;;;21.50;35.20;;;;;;4966309;28;20401;-67
2021/12/06 08:20:43;;;;;;;5.88;3.70;;;21.60;35.40;;;;;;4971340;28;20415;-65
2021/12/06 08:23:11;;;;;;;5.40;3.90;;;21.60;35.90;;;;;;4968108;28;20398;-66
2021/12/06 08:25:37;;;;;;;7.03;4.35;;;21.70;35.80;;;;;;4972892;28;20392;-65
2021/12/06 08:28:04;;;;;;;6.70;4.57;;;21.70;35.90;;;;;;4968387;28;20404;-66
2021/12/06 08:30:29;;;;;;;6.47;4.35;;;21.80;37.00;;;;;;4966688;28;20400;-67
2021/12/06 08:32:59;;;;;;;6.87;4.40;;;21.80;37.00;;;;;;4966776;28;20404;-65
2021/12/06 08:35:26;;;;;;;5.93;4.15;;;21.80;36.60;;;;;;4964591;28;20404;-65
2021/12/06 08:37:53;;;;;;;5.88;3.60;;;21.80;36.50;;;;;;4964986;28;20519;-66
2021/12/06 08:40:20;;;;;;;6.28;4.15;;;21.80;36.50;;;;;;4967327;28;20395;-65
2021/12/06 08:42:46;;;;;;;6.10;3.78;;;21.80;36.40;;;;;;4965312;28;20431;-65
2021/12/06 08:45:12;;;;;;;5.05;3.90;;;21.80;36.30;;;;;;4964596;28;20431;-66
2021/12/06 08:47:39;;;;;;;4.80;3.80;;;21.80;36.20;;;;;;4963701;28;20396;-70
2021/12/06 08:50:08;;;;;;;5.70;3.40;;;21.80;36.10;;;;;;4968762;28;20394;-66
2021/12/06 08:52:36;;;;;;;4.72;3.53;;;21.80;35.90;;;;;;4966723;28;20408;-70
2021/12/06 08:55:04;;;;;;;5.22;3.38;;;21.80;36.00;;;;;;4968589;28;20408;-66
2021/12/06 08:57:29;;;;;;;4.30;3.35;;;21.80;35.70;;;;;;4966382;28;20475;-64
2021/12/06 08:59:55;;;;;;;4.63;3.40;;;21.80;35.80;;;;;;4967075;28;20395;-65
2021/12/06 09:02:21;;;;;;;3.90;3.20;;;21.80;35.90;;;;;;4963497;28;20415;-66
2021/12/06 09:04:48;;;;;;;5.47;3.55;;;21.80;35.80;;;;;;4964589;28;20388;-66
2021/12/06 09:07:14;;;;;;;4.85;3.28;;;21.80;35.90;;;;;;4966836;28;20436;-66
2021/12/06 09:09:47;;;;;;;5.30;3.60;;;21.80;36.00;;;;;;4963656;28;20459;-65
2021/12/06 09:12:19;;;;;;;4.37;3.10;;;21.80;36.10;;;;;;4965873;28;20384;-67
2021/12/06 09:14:46;;;;;;;4.10;3.00;;;21.80;36.10;;;;;;4947654;28;20516;-65
2021/12/06 09:17:13;;;;;;;4.05;3.10;;;21.80;36.00;;;;;;4963352;28;20424;-66
2021/12/06 09:19:39;;;;;;;4.72;3.00;;;21.80;36.20;;;;;;4966761;28;20404;-72
2021/12/06 09:22:06;;;;;;;3.80;3.05;;;21.70;35.90;;;;;;4968652;28;20419;-66
2021/12/06 09:24:32;;;;;;;4.53;3.10;;;21.70;35.50;;;;;;4963720;28;20392;-66
2021/12/06 09:26:58;;;;;;;4.38;3.28;;;21.70;36.00;;;;;;4963954;28;20435;-65
2021/12/06 09:29:24;;;;;;;4.90;3.03;;;21.70;35.60;;;;;;4964785;28;20487;-65
2021/12/06 09:31:54;;;;;;;4.68;3.10;;;21.70;35.70;;;;;;4963969;28;20467;-67
2021/12/06 09:34:21;;;;;;;3.95;3.20;;;21.80;35.60;;;;;;4967061;28;20388;-66
2021/12/06 09:36:47;;;;;;;5.60;3.05;;;21.80;35.60;;;;;;4967276;28;20420;-66
2021/12/06 09:39:14;;;;;;;4.68;3.15;;;21.80;35.60;;;;;;4968205;28;20409;-69
2021/12/06 09:41:41;;;;;;;4.50;2.75;;;21.80;35.70;;;;;;4967738;28;20462;-66
2021/12/06 09:44:09;;;;;;;4.55;3.00;;;21.80;35.60;;;;;;4965166;28;20400;-70
2021/12/06 09:46:36;;;;;;;3.65;2.85;;;21.80;35.60;;;;;;4965714;28;20446;-66
2021/12/06 09:49:12;;;;;;;3.20;2.70;;;21.80;35.80;;;;;;4966384;28;20396;-66
2021/12/06 09:51:41;;;;;;;4.85;2.78;;;21.80;35.60;;;;;;4964886;28;20471;-67
2021/12/06 09:54:07;;;;;;;4.25;3.03;;;21.80;35.60;;;;;;4966885;28;20809;-66
2021/12/06 09:56:39;;;;;;;3.70;2.72;;;21.80;35.60;;;;;;4984736;28;20434;-67
2021/12/06 09:59:09;;;;;;;3.80;2.78;;;21.80;35.70;;;;;;4969742;28;20417;-65
2021/12/06 10:01:42;;;;;;;5.07;2.97;;;21.80;35.80;;;;;;4963031;28;20408;-66
2021/12/06 10:04:11;;;;;;;3.60;2.57;;;21.70;35.40;;;;;;4964107;28;20928;-65
2021/12/06 10:06:38;;;;;;;4.65;2.80;;;21.70;35.60;;;;;;4964242;28;20902;-68
2021/12/06 10:09:07;;;;;;;4.10;2.78;;;21.70;35.60;;;;;;4965493;28;20403;-69
2021/12/06 10:11:33;;;;;;;4.55;3.22;;;21.70;35.50;;;;;;4976434;28;21442;-70
2021/12/06 10:13:59;;;;;;;4.38;3.20;;;21.70;35.40;;;;;;4967903;28;20476;-67
2021/12/06 10:16:25;;;;;;;3.60;2.50;;;21.70;35.40;;;;;;4969292;28;20914;-65
2021/12/06 10:18:52;;;;;;;3.58;2.70;;;21.70;35.30;;;;;;4966956;28;20399;-66
2021/12/06 10:21:19;;;;;;;3.63;2.88;;;21.70;35.20;;;;;;4963257;28;20415;-64
2021/12/06 10:23:45;;;;;;;3.40;2.42;;;21.70;35.10;;;;;;4962905;28;20898;-65
2021/12/06 10:26:13;;;;;;;3.40;2.78;;;21.70;35.00;;;;;;4970080;28;20404;-66
2021/12/06 10:28:43;;;;;;;3.55;2.60;;;21.60;35.00;;;;;;4974129;28;20481;-66
2021/12/06 10:31:12;;;;;;;3.22;2.55;;;21.60;35.00;;;;;;4973005;28;20413;-65
2021/12/06 10:33:42;;;;;;;3.13;2.60;;;21.60;35.00;;;;;;4973057;28;20944;-66
2021/12/06 10:36:15;;;;;;;3.97;2.53;;;21.60;34.90;;;;;;4963102;28;20432;-66
2021/12/06 10:38:47;;;;;;;3.42;2.42;;;21.60;34.90;;;;;;4967478;28;20400;-66
2021/12/06 10:41:18;;;;;;;3.15;2.45;;;21.60;34.90;;;;;;4968741;28;20483;-67
2021/12/06 10:44:09;;;;;;;3.67;2.70;;;21.50;34.80;;;;;;4968800;28;20441;-65
2021/12/06 10:46:37;;;;;;;2.83;2.40;;;21.50;34.80;;;;;;4965584;28;20406;-65
2021/12/06 10:49:06;;;;;;;3.60;2.30;;;21.50;34.80;;;;;;4967726;28;21225;-65
2021/12/06 10:51:33;;;;;;;3.25;2.50;;;21.50;34.80;;;;;;4962755;28;20412;-66
2021/12/06 10:54:05;;;;;;;3.13;2.50;;;21.50;34.80;;;;;;4964141;28;20387;-68
2021/12/06 10:56:43;;;;;;;3.08;2.40;;;21.50;34.90;;;;;;4962575;28;20427;-66
2021/12/06 10:59:24;;;;;;;3.30;2.80;;;21.50;34.80;;;;;;4971148;28;20387;-66
2021/12/06 11:01:54;;;;;;;3.10;2.40;;;21.50;34.80;;;;;;4976784;28;20435;-66
2021/12/06 11:04:23;;;;;;;2.80;2.40;;;21.50;34.80;;;;;;4967279;28;20411;-65
2021/12/06 11:06:53;;;;;;;3.03;2.40;;;21.50;34.80;;;;;;4962050;28;20412;-67
2021/12/06 11:09:25;;;;;;;3.35;2.67;;;21.50;34.70;;;;;;4966853;28;20398;-65
2021/12/06 11:11:54;;;;;;;3.22;2.53;;;21.50;34.80;;;;;;4962709;28;20395;-66
2021/12/06 11:14:23;;;;;;;3.30;2.30;;;21.50;34.70;;;;;;4968059;28;20855;-66
2021/12/06 11:17:09;;;;;;;3.72;2.33;;;21.50;34.80;;;;;;4962417;28;20540;-69
2021/12/06 11:19:37;;;;;;;3.35;2.60;;;21.40;34.70;;;;;;4966468;28;20408;-66
2021/12/06 11:22:02;;;;;;;3.30;2.70;;;21.40;34.70;;;;;;4970905;28;20401;-65
2021/12/06 11:24:40;;;;;;;3.33;2.42;;;21.50;34.90;;;;;;4973898;28;20382;-65
2021/12/06 11:27:09;;;;;;;3.63;2.20;;;21.50;35.00;;;;;;4974774;28;20395;-66
2021/12/06 11:29:40;;;;;;;5.47;4.72;;;21.40;35.40;;;;;;4978883;28;20511;-65
2021/12/06 11:32:09;;;;;;;265.15;121.75;;;21.50;35.50;;;;;;4966466;28;20400;-64
2021/12/06 11:34:51;;;;;;;356.52;197.20;;;21.50;35.90;;;;;;4965797;28;20391;-67
2021/12/06 11:37:22;;;;;;;416.35;296.98;;;21.60;36.10;;;;;;4965933;28;20427;-65
2021/12/06 11:39:59;;;;;;;333.50;230.10;;;21.60;36.70;;;;;;4973757;28;20431;-65
2021/12/06 11:42:24;;;;;;;217.32;139.70;;;21.70;36.50;;;;;;4978415;28;20389;-65
2021/12/06 11:44:51;;;;;;;191.82;123.68;;;21.70;36.20;;;;;;4973789;28;20394;-66
2021/12/06 11:47:18;;;;;;;194.43;124.95;;;21.70;35.80;;;;;;4983787;28;20395;-65
2021/12/06 11:49:54;;;;;;;283.13;175.45;;;21.70;35.60;;;;;;4978423;28;20390;-65
2021/12/06 11:52:26;;;;;;;193.57;120.72;;;21.60;35.40;;;;;;4981354;28;20385;-65
2021/12/06 11:55:02;;;;;;;154.80;101.57;;;21.70;35.30;;;;;;4975793;28;20399;-65
2021/12/06 11:57:38;;;;;;;127.60;80.60;;;21.60;35.40;;;;;;4977484;28;20884;-65
2021/12/06 12:00:20;;;;;;;113.45;72.15;;;21.60;35.10;;;;;;4982248;28;20394;-66
2021/12/06 12:02:55;;;;;;;105.50;65.68;;;21.60;35.10;;;;;;4980503;28;20405;-65
2021/12/06 12:05:38;;;;;;;99.18;61.65;;;21.60;35.50;;;;;;4973460;28;20449;-67
2021/12/06 12:08:07;;;;;;;95.00;59.72;;;21.60;35.10;;;;;;4978985;28;20402;-65
2021/12/06 12:10:53;;;;;;;91.68;57.97;;;21.50;35.10;;;;;;4978643;28;20413;-66
2021/12/06 12:13:29;;;;;;;83.20;52.60;;;21.60;35.70;;;;;;4976956;28;20993;-64
2021/12/06 12:15:59;;;;;;;80.38;52.63;;;21.60;35.70;;;;;;4968370;28;20420;-65
2021/12/06 12:18:26;;;;;;;78.38;51.05;;;21.70;35.80;;;;;;4968819;28;20490;-66
2021/12/06 12:20:53;;;;;;;72.78;47.88;;;21.70;37.10;;;;;;4957547;28;20985;-64
2021/12/06 12:23:20;;;;;;;70.20;45.53;;;21.70;37.00;;;;;;4970491;28;20403;-65
2021/12/06 12:26:05;;;;;;;68.93;44.83;;;21.70;36.50;;;;;;4967211;28;20429;-64
2021/12/06 12:28:41;;;;;;;62.58;41.38;;;21.70;36.40;;;;;;4972162;28;20401;-65
2021/12/06 12:31:11;;;;;;;56.00;37.42;;;21.70;35.60;;;;;;4969369;28;20529;-66
2021/12/06 12:33:37;;;;;;;58.78;37.53;;;21.70;36.10;;;;;;4965885;28;21034;-66
2021/12/06 12:36:10;;;;;;;55.47;37.65;;;21.70;36.30;;;;;;4969942;28;20822;-72
2021/12/06 12:38:37;;;;;;;54.35;35.85;;;21.70;36.40;;;;;;4965507;28;20420;-65
2021/12/06 12:41:09;;;;;;;59.75;37.47;;;21.70;36.20;;;;;;4965750;28;20404;-71
2021/12/06 12:43:41;;;;;;;55.70;34.00;;;21.70;36.10;;;;;;4966822;28;20427;-66
2021/12/06 12:46:17;;;;;;;47.83;31.83;;;21.70;36.10;;;;;;4969659;28;20410;-65
2021/12/06 12:48:52;;;;;;;45.00;29.13;;;21.80;36.20;;;;;;4964605;28;20399;-66
2021/12/06 12:51:22;;;;;;;44.85;29.55;;;21.80;36.10;;;;;;4965131;28;21016;-66
2021/12/06 12:53:59;;;;;;;44.88;27.23;;;21.80;36.10;;;;;;4966960;28;20416;-68
2021/12/06 12:56:28;;;;;;;38.75;24.73;;;21.80;36.50;;;;;;4965531;28;20506;-65
2021/12/06 12:58:54;;;;;;;36.35;23.52;;;21.80;35.80;;;;;;4968524;28;20388;-65
2021/12/06 13:01:25;;;;;;;35.20;22.20;;;21.80;35.70;;;;;;4967577;28;21072;-65
2021/12/06 13:04:00;;;;;;;35.55;22.90;;;21.80;35.90;;;;;;4961373;28;20407;-65
2021/12/06 13:06:35;;;;;;;35.50;22.27;;;21.80;36.10;;;;;;4963976;28;20419;-66
2021/12/06 13:09:26;;;;;;;29.88;21.02;;;21.80;35.80;;;;;;4965352;28;20900;-66